createdAt,value
2019-02-26T00:00:50.154Z,11.57
2019-02-26T00:02:56.322Z,8.30
2019-02-26T00:04:58.633Z,10.47
2019-02-26T00:07:03.374Z,9.07
2019-02-26T00:09:09.332Z,9.03
2019-02-26T00:11:13.967Z,8.43
2019-02-26T00:13:18.337Z,7.93
2019-02-26T00:15:22.677Z,8.63
2019-02-26T00:17:27.014Z,12.13
2019-02-26T00:19:31.405Z,11.70
2019-02-26T00:21:35.746Z,9.83
2019-02-26T00:23:41.639Z,10.57
2019-02-26T00:25:44.538Z,9.83
2019-02-26T00:27:49.639Z,11.20
2019-02-26T00:29:55.132Z,10.53
2019-02-26T00:31:57.867Z,12.07
2019-02-26T00:34:02.239Z,13.23
2019-02-26T00:36:07.319Z,17.47
2019-02-26T00:38:11.673Z,9.73
2019-02-26T00:40:19.045Z,7.90
2019-02-26T00:42:23.639Z,6.37
2019-02-26T00:44:25.244Z,8.67
2019-02-26T00:46:30.276Z,5.63
2019-02-26T00:48:35.901Z,8.70
2019-02-26T00:50:39.802Z,6.27
2019-02-26T00:52:42.704Z,6.43
2019-02-26T00:54:47.107Z,7.17
2019-02-26T00:56:51.425Z,7.23
2019-02-26T00:58:55.771Z,9.47
2019-02-26T01:01:00.157Z,8.47
2019-02-26T01:03:06.086Z,7.53
2019-02-26T01:05:10.792Z,6.47
2019-02-26T01:07:13.439Z,9.20
2019-02-26T01:09:17.861Z,6.07
2019-02-26T01:11:23.833Z,8.80
2019-02-26T01:13:28.458Z,5.43
2019-02-26T01:15:31.057Z,7.90
2019-02-26T01:17:35.745Z,8.23
2019-02-26T01:19:40.727Z,7.23
2019-02-26T01:21:44.289Z,8.20
2019-02-26T01:23:48.670Z,11.73
2019-02-26T01:25:54.668Z,7.97
2019-02-26T01:27:58.579Z,9.10
2019-02-26T01:30:03.432Z,7.73
2019-02-26T01:32:08.885Z,8.63
2019-02-26T01:34:12.002Z,10.50
2019-02-26T01:36:16.228Z,10.27
2019-02-26T01:38:21.335Z,6.70
2019-02-26T01:40:25.745Z,8.47
2019-02-26T01:42:29.852Z,5.80
2019-02-26T01:44:35.096Z,11.87
2019-02-26T01:46:38.821Z,4.87
2019-02-26T01:48:41.489Z,5.50
2019-02-26T01:50:45.877Z,8.57
2019-02-26T01:52:51.870Z,7.77
2019-02-26T01:54:55.836Z,5.40
2019-02-26T01:56:59.001Z,6.80
2019-02-26T01:59:03.373Z,9.37
2019-02-26T02:01:09.988Z,7.30
2019-02-26T02:03:12.191Z,10.10
2019-02-26T02:05:16.635Z,9.80
2019-02-26T02:07:21.927Z,8.13
2019-02-26T02:09:25.572Z,9.83
2019-02-26T02:11:31.208Z,10.10
2019-02-26T02:13:35.774Z,11.43
2019-02-26T02:15:40.082Z,10.30
2019-02-26T02:17:43.241Z,9.87
2019-02-26T02:19:47.605Z,8.07
2019-02-26T02:21:53.793Z,10.87
2019-02-26T02:23:56.386Z,11.23
2019-02-26T02:26:04.083Z,10.53
2019-02-26T02:28:05.170Z,6.37
2019-02-26T02:30:18.564Z,9.57
2019-02-26T02:32:16.656Z,10.40
2019-02-26T02:34:23.253Z,8.73
2019-02-26T02:36:26.397Z,12.43
2019-02-26T02:38:29.923Z,15.20
2019-02-26T02:40:34.340Z,10.50
2019-02-26T02:42:40.774Z,9.57
2019-02-26T02:44:44.832Z,9.67
2019-02-26T02:46:47.486Z,8.67
2019-02-26T02:48:51.928Z,8.33
2019-02-26T02:50:56.315Z,8.37
2019-02-26T02:53:02.225Z,6.17
2019-02-26T02:55:06.982Z,10.03
2019-02-26T02:57:10.061Z,8.43
2019-02-26T02:59:14.648Z,8.20
2019-02-26T03:01:21.266Z,8.47
2019-02-26T03:03:23.009Z,6.83
2019-02-26T03:05:31.301Z,9.10
2019-02-26T03:07:31.756Z,6.13
2019-02-26T03:09:37.734Z,8.33
2019-02-26T03:11:41.992Z,6.57
2019-02-26T03:13:45.868Z,5.20
2019-02-26T03:15:50.146Z,6.37
2019-02-26T03:17:53.633Z,8.57
2019-02-26T03:19:58.603Z,6.53
2019-02-26T03:22:02.365Z,8.30
2019-02-26T03:24:08.649Z,8.17
2019-02-26T03:26:14.778Z,7.27
2019-02-26T03:28:15.519Z,7.77
2019-02-26T03:30:27.498Z,8.07
2019-02-26T03:32:24.348Z,10.57
2019-02-26T03:34:28.731Z,8.13
2019-02-26T03:36:34.161Z,11.57
2019-02-26T03:38:37.466Z,6.67
2019-02-26T03:40:41.841Z,9.93
2019-02-26T03:42:46.397Z,12.10
2019-02-26T03:44:50.668Z,12.00
2019-02-26T03:46:54.993Z,10.70
2019-02-26T03:49:02.514Z,11.07
2019-02-26T03:51:03.781Z,9.30
2019-02-26T03:53:09.905Z,9.33
2019-02-26T03:55:15.414Z,7.83
2019-02-26T03:57:19.311Z,7.97
2019-02-26T03:59:21.636Z,8.60
2019-02-26T04:01:26.089Z,8.63
2019-02-26T04:03:32.138Z,12.63
2019-02-26T04:05:34.923Z,8.73
2019-02-26T04:07:39.375Z,11.10
2019-02-26T04:09:44.413Z,11.43
2019-02-26T04:11:50.340Z,9.27
2019-02-26T04:13:56.126Z,8.50
2019-02-26T04:15:59.092Z,12.17
2019-02-26T04:18:01.543Z,9.53
2019-02-26T04:20:06.722Z,9.93
2019-02-26T04:22:23.353Z,7.47
2019-02-26T04:24:29.047Z,10.00
2019-02-26T04:26:51.725Z,8.23
2019-02-26T04:29:05.208Z,13.67
2019-02-26T04:33:27.834Z,11.03
2019-02-26T04:35:44.796Z,14.97
2019-02-26T04:38:29.098Z,13.60
2019-02-26T04:40:41.010Z,11.83
2019-02-26T04:42:55.602Z,11.57
2019-02-26T04:45:42.053Z,11.17
2019-02-26T04:47:48.818Z,16.57
2019-02-26T04:49:50.807Z,10.97
2019-02-26T04:51:55.151Z,8.60
2019-02-26T04:54:02.034Z,10.07
2019-02-26T04:56:06.318Z,10.40
2019-02-26T04:58:08.754Z,11.77
2019-02-26T05:00:12.721Z,13.17
2019-02-26T05:02:17.195Z,10.83
2019-02-26T05:04:21.630Z,12.13
2019-02-26T05:06:26.039Z,11.93
2019-02-26T05:08:32.080Z,8.73
2019-02-26T05:10:34.835Z,13.33
2019-02-26T05:12:40.179Z,12.60
2019-02-26T05:14:43.623Z,12.13
2019-02-26T05:16:47.999Z,9.03
2019-02-26T05:18:55.017Z,10.70
2019-02-26T05:20:56.790Z,11.97
2019-02-26T05:23:02.980Z,10.30
2019-02-26T05:25:07.431Z,8.50
2019-02-26T05:27:15.642Z,10.03
2019-02-26T05:29:19.270Z,9.23
2019-02-26T05:31:23.689Z,9.97
2019-02-26T05:33:30.419Z,9.40
2019-02-26T05:35:32.466Z,10.57
2019-02-26T05:37:40.220Z,13.77
2019-02-26T05:39:43.332Z,10.13
2019-02-26T05:41:45.657Z,9.93
2019-02-26T05:43:55.331Z,9.37
2019-02-26T05:45:57.417Z,11.73
2019-02-26T05:47:59.066Z,10.30
2019-02-26T05:50:06.239Z,8.77
2019-02-26T05:52:07.507Z,13.13
2019-02-26T05:54:14.785Z,10.77
2019-02-26T05:56:17.154Z,11.57
2019-02-26T05:58:21.443Z,16.60
2019-02-26T06:00:28.944Z,12.30
2019-02-26T06:02:29.561Z,11.50
2019-02-26T06:04:35.180Z,5.30
2019-02-26T06:06:38.407Z,11.33
2019-02-26T06:08:42.829Z,7.50
2019-02-26T06:10:47.227Z,14.07
2019-02-26T06:12:51.609Z,8.23
2019-02-26T06:15:00.255Z,8.73
2019-02-26T06:17:00.302Z,10.37
2019-02-26T06:19:06.146Z,8.93
2019-02-26T06:21:09.184Z,13.17
2019-02-26T06:23:13.571Z,9.63
2019-02-26T06:25:23.295Z,11.83
2019-02-26T06:27:24.688Z,11.63
2019-02-26T06:29:27.409Z,13.47
2019-02-26T06:31:31.136Z,10.30
2019-02-26T06:33:36.607Z,11.97
2019-02-26T06:35:40.639Z,10.07
2019-02-26T06:37:44.258Z,9.60
2019-02-26T06:39:50.568Z,10.37
2019-02-26T06:41:52.944Z,10.57
2019-02-26T06:43:57.295Z,12.53
2019-02-26T06:46:02.674Z,22.70
2019-02-26T06:48:06.091Z,10.83
2019-02-26T06:50:12.980Z,9.03
2019-02-26T06:52:16.265Z,12.27
2019-02-26T06:54:22.144Z,15.37
2019-02-26T06:56:23.950Z,14.47
2019-02-26T06:58:28.953Z,13.83
2019-02-26T07:00:33.333Z,9.13
2019-02-26T07:02:37.696Z,14.13
2019-02-26T07:04:42.029Z,9.73
2019-02-26T07:06:46.393Z,12.00
2019-02-26T07:08:51.090Z,7.90
2019-02-26T07:10:55.117Z,9.10
2019-02-26T07:12:59.502Z,14.40
2019-02-26T07:15:03.995Z,9.53
2019-02-26T07:17:08.358Z,9.43
2019-02-26T07:19:14.492Z,11.27
2019-02-26T07:21:17.125Z,13.93
2019-02-26T07:23:21.485Z,11.20
2019-02-26T07:25:25.866Z,11.80
2019-02-26T07:27:32.004Z,9.43
2019-02-26T07:29:37.539Z,15.17
2019-02-26T07:31:39.014Z,12.67
2019-02-26T07:33:43.389Z,11.03
2019-02-26T07:35:47.716Z,11.47
2019-02-26T07:37:52.706Z,12.37
2019-02-26T07:39:56.469Z,13.43
2019-02-26T07:42:00.833Z,19.97
2019-02-26T07:44:09.033Z,13.63
2019-02-26T07:46:11.756Z,18.87
2019-02-26T07:48:18.627Z,27.40
2019-02-26T07:50:18.360Z,19.37
2019-02-26T07:52:24.345Z,23.73
2019-02-26T07:54:28.720Z,26.43
2019-02-26T07:56:32.722Z,20.57
2019-02-26T07:58:36.808Z,15.73
2019-02-26T08:00:42.318Z,21.00
2019-02-26T08:02:44.552Z,22.00
2019-02-26T08:04:48.959Z,17.40
2019-02-26T08:06:54.959Z,17.07
2019-02-26T08:08:57.783Z,16.63
2019-02-26T08:11:02.163Z,23.30
2019-02-26T08:13:08.039Z,10.87
2019-02-26T08:15:15.533Z,31.07
2019-02-26T08:17:17.475Z,19.20
2019-02-26T08:19:21.826Z,22.03
2019-02-26T08:21:27.068Z,18.53
2019-02-26T08:23:30.576Z,17.30
2019-02-26T08:25:34.918Z,19.30
2019-02-26T08:27:39.233Z,19.20
2019-02-26T08:29:43.619Z,16.60
2019-02-26T08:31:49.546Z,18.00
2019-02-26T08:33:52.862Z,14.90
2019-02-26T08:35:57.242Z,20.07
2019-02-26T08:38:05.684Z,19.87
2019-02-26T08:40:09.378Z,19.73
2019-02-26T08:42:12.106Z,18.30
2019-02-26T08:44:16.430Z,17.93
2019-02-26T08:46:20.846Z,32.00
2019-02-26T08:48:26.979Z,19.30
2019-02-26T08:50:32.973Z,15.53
2019-02-26T08:52:33.956Z,12.93
2019-02-26T08:54:38.353Z,12.73
2019-02-26T08:56:42.706Z,13.70
2019-02-26T08:58:47.022Z,11.17
2019-02-26T09:00:51.379Z,17.80
2019-02-26T09:02:56.663Z,15.13
2019-02-26T09:05:01.567Z,12.30
2019-02-26T09:07:04.529Z,23.87
2019-02-26T09:09:09.726Z,17.97
2019-02-26T09:11:14.244Z,17.47
2019-02-26T09:13:18.759Z,19.80
2019-02-26T09:15:23.000Z,12.30
2019-02-26T09:17:29.890Z,10.70
2019-02-26T09:19:35.421Z,13.77
2019-02-26T09:21:39.481Z,12.33
2019-02-26T09:23:42.391Z,17.03
2019-02-26T09:25:51.540Z,13.43
2019-02-26T09:27:51.350Z,12.57
2019-02-26T09:29:56.088Z,14.43
2019-02-26T09:32:00.510Z,11.23
2019-02-26T09:34:04.871Z,12.10
2019-02-26T09:36:12.653Z,14.13
2019-02-26T09:38:15.021Z,21.90
2019-02-26T09:40:20.395Z,26.47
2019-02-26T09:42:23.374Z,19.00
2019-02-26T09:44:29.245Z,21.57
2019-02-26T09:46:33.566Z,15.17
2019-02-26T09:48:38.173Z,15.03
2019-02-26T09:50:41.915Z,14.23
2019-02-26T09:52:45.202Z,16.43
2019-02-26T09:54:51.105Z,16.97
2019-02-26T09:56:53.832Z,12.00
2019-02-26T09:58:58.159Z,9.40
2019-02-26T10:01:02.505Z,10.00
2019-02-26T10:03:08.399Z,17.27
2019-02-26T10:05:13.516Z,15.33
2019-02-26T10:07:15.738Z,28.07
2019-02-26T10:09:20.710Z,16.13
2019-02-26T10:11:26.127Z,15.40
2019-02-26T10:13:28.998Z,12.37
2019-02-26T10:15:34.882Z,15.40
2019-02-26T10:17:40.155Z,14.10
2019-02-26T10:19:43.005Z,17.80
2019-02-26T10:21:46.659Z,15.50
2019-02-26T10:23:52.141Z,13.40
2019-02-26T10:25:57.558Z,21.30
2019-02-26T10:28:05.731Z,11.87
2019-02-26T10:30:08.409Z,13.63
2019-02-26T10:32:11.781Z,15.60
2019-02-26T10:34:15.754Z,17.13
2019-02-26T10:36:19.071Z,14.17
2019-02-26T10:38:24.195Z,11.47
2019-02-26T10:40:35.242Z,14.63
2019-02-26T10:42:39.628Z,11.63
2019-02-26T10:44:36.729Z,11.87
2019-02-26T10:46:42.563Z,11.70
2019-02-26T10:48:46.341Z,11.70
2019-02-26T10:50:51.930Z,10.43
2019-02-26T10:52:57.746Z,12.57
2019-02-26T10:54:58.825Z,9.37
2019-02-26T10:57:07.459Z,10.83
2019-02-26T10:59:09.460Z,9.37
2019-02-26T11:01:13.092Z,9.83
2019-02-26T11:03:19.863Z,12.17
2019-02-26T11:05:26.256Z,15.20
2019-02-26T11:07:27.053Z,12.20
2019-02-26T11:09:31.987Z,11.83
2019-02-26T11:11:37.367Z,13.23
2019-02-26T11:13:42.247Z,13.40
2019-02-26T11:15:43.971Z,12.80
2019-02-26T11:17:50.476Z,11.33
2019-02-26T11:19:53.668Z,15.73
2019-02-26T11:22:00.852Z,14.80
2019-02-26T11:24:04.154Z,12.90
2019-02-26T11:26:10.713Z,18.17
2019-02-26T11:28:12.985Z,17.43
2019-02-26T11:30:20.550Z,13.77
2019-02-26T11:32:22.151Z,10.47
2019-02-26T11:34:28.567Z,16.63
2019-02-26T11:36:32.958Z,13.73
2019-02-26T11:38:36.995Z,18.60
2019-02-26T11:40:39.716Z,13.83
2019-02-26T11:42:44.460Z,19.00
2019-02-26T11:44:48.458Z,12.40
2019-02-26T11:46:54.319Z,17.83
2019-02-26T11:48:57.546Z,14.03
2019-02-26T11:51:01.589Z,12.90
2019-02-26T11:53:09.300Z,11.20
2019-02-26T11:55:11.370Z,12.87
2019-02-26T11:57:17.634Z,12.83
2019-02-26T11:59:20.051Z,16.97
2019-02-26T12:01:24.463Z,14.37
2019-02-26T12:03:32.731Z,15.80
2019-02-26T12:05:35.503Z,12.13
2019-02-26T12:07:37.663Z,13.07
2019-02-26T12:09:43.339Z,16.33
2019-02-26T12:11:46.498Z,19.43
2019-02-26T12:13:53.026Z,17.63
2019-02-26T12:15:55.250Z,22.77
2019-02-26T12:17:59.684Z,14.90
2019-02-26T12:20:04.299Z,14.67
2019-02-26T12:22:08.664Z,16.10
2019-02-26T12:24:13.042Z,16.83
2019-02-26T12:26:19.190Z,16.60
2019-02-26T12:28:21.927Z,16.67
2019-02-26T12:30:26.409Z,15.23
2019-02-26T12:32:30.798Z,19.67
2019-02-26T12:34:44.604Z,19.07
2019-02-26T12:36:48.177Z,17.03
2019-02-26T12:38:53.436Z,20.43
2019-02-26T12:40:54.913Z,15.57
2019-02-26T12:43:01.851Z,20.53
2019-02-26T12:45:06.708Z,15.97
2019-02-26T12:47:08.088Z,15.37
2019-02-26T12:49:14.859Z,14.80
2019-02-26T12:51:25.243Z,15.17
2019-02-26T12:53:27.370Z,15.63
2019-02-26T12:55:34.527Z,13.80
2019-02-26T12:57:36.256Z,19.43
2019-02-26T12:59:40.662Z,16.53
2019-02-26T13:01:46.222Z,27.23
2019-02-26T13:03:53.890Z,15.37
2019-02-26T13:05:53.850Z,16.93
2019-02-26T13:07:58.230Z,14.50
2019-02-26T13:10:03.867Z,12.80
2019-02-26T13:12:07.302Z,18.97
2019-02-26T13:14:11.681Z,15.07
2019-02-26T13:16:16.043Z,20.10
2019-02-26T13:18:20.442Z,17.00
2019-02-26T13:20:24.803Z,14.97
2019-02-26T13:22:29.141Z,15.50
2019-02-26T13:24:33.506Z,14.20
2019-02-26T13:26:39.081Z,16.37
2019-02-26T13:28:46.762Z,14.00
2019-02-26T13:30:46.696Z,12.13
2019-02-26T13:34:56.510Z,14.50
2019-02-26T13:37:00.033Z,13.80
2019-02-26T13:39:05.234Z,21.53
2019-02-26T13:41:28.975Z,18.57
2019-02-26T13:43:14.161Z,15.03
2019-02-26T13:45:20.039Z,14.67
2019-02-26T13:47:25.332Z,17.30
2019-02-26T13:49:29.761Z,19.67
2019-02-26T13:51:34.152Z,15.20
2019-02-26T13:53:38.853Z,21.67
2019-02-26T13:55:43.256Z,15.27
2019-02-26T13:57:47.618Z,16.50
2019-02-26T13:59:52.033Z,15.87
2019-02-26T14:01:56.473Z,18.30
2019-02-26T14:04:00.876Z,14.77
2019-02-26T14:06:05.260Z,17.00
2019-02-26T14:08:09.706Z,14.63
2019-02-26T14:10:15.059Z,17.30
2019-02-26T14:12:19.439Z,15.17
2019-02-26T14:14:23.778Z,17.83
2019-02-26T14:16:32.546Z,15.00
2019-02-26T14:18:32.506Z,11.83
2019-02-26T14:20:36.975Z,19.03
2019-02-26T14:22:41.433Z,12.03
2019-02-26T14:24:45.763Z,13.60
2019-02-26T14:26:50.170Z,15.33
2019-02-26T14:28:54.511Z,16.47
2019-02-26T14:30:58.886Z,19.50
2019-02-26T14:33:03.250Z,13.40
2019-02-26T14:35:08.633Z,11.30
2019-02-26T14:37:13.906Z,12.63
2019-02-26T14:39:18.245Z,16.80
2019-02-26T14:41:22.597Z,13.07
2019-02-26T14:43:27.004Z,14.73
2019-02-26T14:45:31.376Z,17.17
2019-02-26T14:47:35.852Z,15.47
2019-02-26T14:49:40.210Z,13.03
2019-02-26T14:51:44.542Z,12.33
2019-02-26T14:53:49.264Z,13.67
2019-02-26T14:55:53.434Z,12.47
2019-02-26T14:57:57.798Z,15.77
2019-02-26T15:00:02.173Z,12.73
2019-02-26T15:02:06.518Z,11.83
2019-02-26T15:04:10.920Z,10.37
2019-02-26T15:06:15.663Z,11.47
2019-02-26T15:08:19.622Z,15.23
2019-02-26T15:10:24.020Z,14.13
2019-02-26T15:12:28.375Z,14.67
2019-02-26T15:14:32.778Z,16.47
2019-02-26T15:16:37.148Z,12.00
2019-02-26T15:18:41.516Z,10.80
2019-02-26T15:20:45.920Z,14.00
2019-02-26T15:22:50.270Z,13.17
2019-02-26T15:24:54.641Z,16.90
2019-02-26T15:26:59.027Z,14.93
2019-02-26T15:29:03.402Z,13.07
2019-02-26T15:31:07.923Z,15.67
2019-02-26T15:33:12.350Z,17.57
2019-02-26T15:35:16.809Z,15.40
2019-02-26T15:37:21.177Z,27.47
2019-02-26T15:39:25.541Z,17.47
2019-02-26T15:41:29.947Z,16.83
2019-02-26T15:43:34.289Z,13.73
2019-02-26T15:45:38.618Z,15.63
2019-02-26T15:47:43.101Z,17.93
2019-02-26T15:49:47.463Z,17.53
2019-02-26T15:51:51.827Z,15.53
2019-02-26T15:53:56.450Z,10.43
2019-02-26T15:56:00.575Z,14.47
2019-02-26T15:58:06.805Z,11.93
2019-02-26T16:00:11.541Z,12.23
2019-02-26T16:02:15.903Z,11.97
2019-02-26T16:04:20.331Z,17.37
2019-02-26T16:06:24.718Z,13.80
2019-02-26T16:08:34.654Z,13.83
2019-02-26T16:10:33.461Z,14.47
2019-02-26T16:12:37.854Z,14.17
2019-02-26T16:14:42.216Z,11.47
2019-02-26T16:16:46.540Z,13.03
2019-02-26T16:18:50.969Z,17.10
2019-02-26T16:20:55.376Z,12.70
2019-02-26T16:22:59.723Z,15.70
2019-02-26T16:25:07.440Z,13.77
2019-02-26T16:27:08.495Z,14.33
2019-02-26T16:29:12.869Z,14.10
2019-02-26T16:31:17.283Z,21.57
2019-02-26T16:33:21.698Z,17.03
2019-02-26T16:35:26.088Z,19.43
2019-02-26T16:37:30.454Z,19.10
2019-02-26T16:39:34.814Z,19.80
2019-02-26T16:41:39.239Z,21.73
2019-02-26T16:43:43.622Z,16.70
2019-02-26T16:45:48.093Z,19.47
2019-02-26T16:47:52.505Z,18.27
2019-02-26T16:50:02.112Z,19.57
2019-02-26T16:52:01.368Z,22.00
2019-02-26T16:54:07.430Z,19.10
2019-02-26T16:56:10.372Z,21.43
2019-02-26T16:58:14.871Z,29.00
2019-02-26T17:00:20.692Z,25.63
2019-02-26T17:02:27.198Z,19.97
2019-02-26T17:04:30.892Z,19.63
2019-02-26T17:06:33.784Z,23.23
2019-02-26T17:08:38.233Z,19.97
2019-02-26T17:10:42.654Z,22.67
2019-02-26T17:12:50.808Z,23.47
2019-02-26T17:14:55.230Z,22.07
2019-02-26T17:17:01.579Z,19.93
2019-02-26T17:19:04.078Z,23.90
2019-02-26T17:21:08.530Z,26.97
2019-02-26T17:23:14.081Z,24.63
2019-02-26T17:25:17.386Z,19.73
2019-02-26T17:27:21.766Z,25.03
2019-02-26T17:29:26.157Z,21.80
2019-02-26T17:31:30.733Z,21.50
2019-02-26T17:33:35.204Z,18.60
2019-02-26T17:35:39.534Z,28.10
2019-02-26T17:37:43.934Z,18.97
2019-02-26T17:39:48.318Z,21.27
2019-02-26T17:41:52.730Z,20.07
2019-02-26T17:43:59.619Z,17.17
2019-02-26T17:46:01.553Z,17.23
2019-02-26T17:48:06.039Z,18.90
2019-02-26T17:50:13.483Z,19.50
2019-02-26T17:52:17.969Z,20.30
2019-02-26T17:54:24.325Z,19.70
2019-02-26T17:56:28.831Z,18.60
2019-02-26T17:58:33.246Z,20.37
2019-02-26T18:00:39.698Z,20.23
2019-02-26T18:02:44.822Z,18.70
2019-02-26T18:04:49.282Z,20.50
2019-02-26T18:06:53.801Z,24.27
2019-02-26T18:08:58.255Z,18.27
2019-02-26T18:11:02.770Z,21.57
2019-02-26T18:13:09.126Z,15.57
2019-02-26T18:15:16.650Z,23.20
2019-02-26T18:17:18.178Z,22.33
2019-02-26T18:19:22.565Z,20.30
2019-02-26T18:21:26.918Z,21.83
2019-02-26T18:23:31.266Z,26.80
2019-02-26T18:25:35.835Z,23.03
2019-02-26T18:27:40.347Z,39.63
2019-02-26T18:29:44.784Z,37.20
2019-02-26T18:31:49.259Z,36.77
2019-02-26T18:33:53.627Z,27.93
2019-02-26T18:35:59.351Z,26.93
2019-02-26T18:38:02.573Z,35.27
2019-02-26T18:40:07.589Z,33.63
2019-02-26T18:42:11.834Z,36.77
2019-02-26T18:44:17.807Z,32.17
2019-02-26T18:46:20.791Z,34.67
2019-02-26T18:48:25.449Z,25.10
2019-02-26T18:50:29.971Z,28.53
2019-02-26T18:52:34.431Z,27.63
2019-02-26T18:54:38.849Z,22.77
2019-02-26T18:56:43.246Z,28.00
2019-02-26T18:58:49.098Z,26.87
2019-02-26T19:00:52.132Z,22.60
2019-02-26T19:02:56.523Z,21.37
2019-02-26T19:05:01.765Z,18.77
2019-02-26T19:07:06.266Z,26.10
2019-02-26T19:09:12.326Z,27.27
2019-02-26T19:11:16.856Z,22.13
2019-02-26T19:13:21.247Z,28.33
2019-02-26T19:15:25.708Z,26.50
2019-02-26T19:17:30.114Z,35.27
2019-02-26T19:19:34.581Z,30.23
2019-02-26T19:21:39.094Z,28.77
2019-02-26T19:23:43.653Z,25.07
2019-02-26T19:25:48.814Z,29.40
2019-02-26T19:27:53.687Z,32.87
2019-02-26T19:29:57.825Z,20.53
2019-02-26T19:32:02.270Z,21.23
2019-02-26T19:34:06.747Z,19.57
2019-02-26T19:36:13.061Z,23.33
2019-02-26T19:38:15.721Z,20.50
2019-02-26T19:40:21.699Z,24.40
2019-02-26T19:42:26.094Z,20.07
2019-02-26T19:44:30.624Z,19.00
2019-02-26T19:46:35.704Z,18.03
2019-02-26T19:48:40.277Z,16.80
2019-02-26T19:50:47.941Z,19.03
2019-02-26T19:52:56.616Z,23.23
2019-02-26T19:54:53.631Z,20.23
2019-02-26T19:56:58.101Z,16.27
2019-02-26T19:59:03.903Z,17.20
2019-02-26T20:01:08.312Z,18.87
2019-02-26T20:03:12.762Z,19.30
2019-02-26T20:05:17.215Z,17.13
2019-02-26T20:07:21.711Z,18.93
2019-02-26T20:09:26.147Z,18.53
2019-02-26T20:11:30.591Z,24.90
2019-02-26T20:13:35.061Z,19.27
2019-02-26T20:15:39.591Z,19.23
2019-02-26T20:17:44.098Z,21.07
2019-02-26T20:19:48.595Z,17.37
2019-02-26T20:21:53.110Z,17.87
2019-02-26T20:23:57.574Z,22.27
2019-02-26T20:26:01.993Z,17.80
2019-02-26T20:28:07.072Z,18.03
2019-02-26T20:30:14.055Z,17.50
2019-02-26T20:32:18.595Z,24.97
2019-02-26T20:34:23.153Z,19.03
2019-02-26T20:36:29.622Z,17.07
2019-02-26T20:38:35.202Z,21.10
2019-02-26T20:40:38.768Z,16.30
2019-02-26T20:42:43.363Z,14.47
2019-02-26T20:44:47.867Z,22.30
2019-02-26T20:46:52.278Z,13.57
2019-02-26T20:48:56.825Z,21.20
2019-02-26T20:51:01.265Z,18.07
2019-02-26T20:53:06.514Z,16.83
2019-02-26T20:55:12.062Z,23.70
2019-02-26T20:57:16.523Z,24.13
2019-02-26T20:59:22.101Z,33.30
2019-02-26T21:01:26.582Z,40.90
2019-02-26T21:03:53.381Z,36.87
2019-02-26T21:05:57.883Z,32.23
2019-02-26T21:08:18.584Z,20.53
2019-02-26T21:10:23.786Z,23.93
2019-02-26T21:12:28.797Z,27.73
2019-02-26T21:14:32.618Z,27.47
2019-02-26T21:16:37.039Z,25.70
2019-02-26T21:18:41.447Z,31.20
2019-02-26T21:20:45.896Z,23.10
2019-02-26T21:22:54.657Z,20.60
2019-02-26T21:24:55.241Z,17.77
2019-02-26T21:26:59.690Z,21.20
2019-02-26T21:29:06.267Z,22.27
2019-02-26T21:31:08.559Z,19.27
2019-02-26T21:33:13.011Z,18.37
2019-02-26T21:35:20.214Z,23.37
2019-02-26T21:37:21.973Z,17.60
2019-02-26T21:39:26.567Z,18.30
2019-02-26T21:41:31.538Z,16.93
2019-02-26T21:43:36.242Z,14.23
2019-02-26T21:45:40.774Z,16.53
2019-02-26T21:47:45.256Z,19.43
2019-02-26T21:49:49.645Z,20.00
2019-02-26T21:51:55.222Z,19.87
2019-02-26T21:53:58.518Z,19.53
2019-02-26T21:56:02.857Z,14.33
2019-02-26T21:58:07.279Z,13.07
2019-02-26T22:00:13.520Z,15.83
2019-02-26T22:02:18.878Z,14.67
2019-02-26T22:04:23.204Z,18.73
2019-02-26T22:06:27.582Z,17.67
2019-02-26T22:08:32.055Z,13.37
2019-02-26T22:10:36.478Z,17.53
2019-02-26T22:12:40.898Z,17.63
2019-02-26T22:14:45.287Z,15.43
2019-02-26T22:16:51.503Z,18.07
2019-02-26T22:18:54.169Z,19.93
2019-02-26T22:20:58.603Z,20.33
2019-02-26T22:23:03.018Z,17.73
2019-02-26T22:25:09.877Z,21.13
2019-02-26T22:27:12.010Z,17.03
2019-02-26T22:29:16.392Z,20.03
2019-02-26T22:31:20.761Z,16.00
2019-02-26T22:33:25.122Z,25.60
2019-02-26T22:35:30.389Z,22.03
2019-02-26T22:37:34.787Z,20.07
2019-02-26T22:39:39.238Z,20.07
2019-02-26T22:41:43.607Z,17.60
2019-02-26T22:43:48.183Z,11.33
2019-02-26T22:45:52.346Z,15.73
2019-02-26T22:47:56.742Z,23.17
2019-02-26T22:50:03.115Z,16.83
2019-02-26T22:52:05.472Z,18.07
2019-02-26T22:54:10.376Z,18.67
2019-02-26T22:56:15.368Z,14.70
2019-02-26T22:58:18.616Z,18.10
2019-02-26T23:00:35.503Z,12.93
2019-02-26T23:02:40.813Z,13.80
2019-02-26T23:04:44.310Z,14.83
2019-02-26T23:06:48.685Z,17.30
2019-02-26T23:08:53.070Z,19.77
2019-02-26T23:10:58.048Z,11.87
2019-02-26T23:13:01.881Z,16.23
2019-02-26T23:15:06.497Z,15.97
2019-02-26T23:17:11.042Z,17.50
2019-02-26T23:19:15.494Z,12.30
2019-02-26T23:21:20.046Z,17.40
2019-02-26T23:23:24.398Z,16.80
2019-02-26T23:25:28.827Z,15.30
2019-02-26T23:27:33.314Z,17.30
2019-02-26T23:29:39.430Z,39.17
2019-02-26T23:31:43.795Z,31.07
2019-02-26T23:33:49.010Z,28.87
2019-02-26T23:35:54.902Z,25.80
2019-02-26T23:37:56.971Z,21.77
2019-02-26T23:40:01.366Z,21.77
2019-02-26T23:42:06.586Z,18.23
2019-02-26T23:44:17.745Z,14.97
2019-02-26T23:46:24.142Z,13.33
2019-02-26T23:48:28.674Z,18.63
2019-02-26T23:50:33.039Z,16.83
2019-02-26T23:52:37.538Z,14.33
2019-02-26T23:54:41.911Z,17.93
2019-02-26T23:56:46.250Z,13.60
2019-02-26T23:58:50.606Z,22.27
